Time;durP1;ratioP1;P1;durP2;ratioP2;P2;SDS_P1;SDS_P2;PMS_P1;PMS_P2;Temp;Humidity;BMP_temperature;BMP_pressure;BME280_temperature;BME280_humidity;BME280_pressure;Samples;Min_cycle;Max_cycle;Signal;HPM_P1;HPM_P2
2023/12/17 00:04:37;;;;;;;69.17;31.40;;;;;;;;;;10284577;28;20921;-79
2023/12/17 00:09:38;;;;;;;55.27;28.03;;;;;;;;;;10288949;28;20068;-79
2023/12/17 00:14:41;;;;;;;56.00;27.80;;;;;;;;;;10267843;28;20043;-80
2023/12/17 00:19:42;;;;;;;59.23;29.67;;;;;;;;;;10285563;28;20117;-79
2023/12/17 00:24:44;;;;;;;49.07;24.27;;;;;;;;;;10272528;28;20074;-80
2023/12/17 00:29:45;;;;;;;54.03;28.27;;;;;;;;;;10298912;28;20039;-79
2023/12/17 00:34:46;;;;;;;56.67;29.37;;;;;;;;;;10294933;28;20126;-79
2023/12/17 00:39:47;;;;;;;57.50;29.10;;;;;;;;;;10272096;28;20169;-78
2023/12/17 00:44:48;;;;;;;56.03;27.93;;;;;;;;;;10284978;28;20070;-80
2023/12/17 00:49:49;;;;;;;52.97;28.37;;;;;;;;;;10294811;28;20558;-78
2023/12/17 00:54:51;;;;;;;53.83;28.57;;;;;;;;;;10284503;28;20045;-79
2023/12/17 00:59:52;;;;;;;50.70;26.67;;;;;;;;;;10278594;28;20050;-79
2023/12/17 01:04:53;;;;;;;50.40;26.63;;;;;;;;;;10260920;28;20126;-79
2023/12/17 01:09:54;;;;;;;54.70;27.13;;;;;;;;;;10283912;28;20130;-78
2023/12/17 01:14:55;;;;;;;46.77;27.07;;;;;;;;;;10283709;28;20047;-79
2023/12/17 01:19:56;;;;;;;46.70;26.03;;;;;;;;;;10271388;28;20031;-79
2023/12/17 01:24:57;;;;;;;44.50;24.37;;;;;;;;;;10299096;28;20121;-79
2023/12/17 01:29:58;;;;;;;46.80;24.20;;;;;;;;;;10286872;28;20097;-78
2023/12/17 01:35:00;;;;;;;46.50;22.93;;;;;;;;;;10267856;28;20046;-79
2023/12/17 01:40:01;;;;;;;47.37;21.70;;;;;;;;;;10282652;28;20055;-79
2023/12/17 01:45:02;;;;;;;39.37;21.03;;;;;;;;;;10271037;28;20030;-79
2023/12/17 01:50:04;;;;;;;41.83;20.57;;;;;;;;;;10283782;28;20027;-78
2023/12/17 01:55:05;;;;;;;46.57;22.83;;;;;;;;;;10283410;28;20046;-78
2023/12/17 02:00:13;;;;;;;41.63;21.00;;;;;;;;;;10295226;28;20039;-79
2023/12/17 02:05:15;;;;;;;37.87;19.23;;;;;;;;;;10278812;28;20050;-79
2023/12/17 02:10:16;;;;;;;42.23;18.97;;;;;;;;;;10289503;28;20402;-78
2023/12/17 02:15:18;;;;;;;36.80;19.80;;;;;;;;;;10289492;28;20043;-81
2023/12/17 02:20:19;;;;;;;41.50;20.67;;;;;;;;;;10295834;28;20138;-78
2023/12/17 02:25:21;;;;;;;40.33;21.03;;;;;;;;;;10306882;28;20053;-80
2023/12/17 02:30:22;;;;;;;41.03;20.77;;;;;;;;;;10290111;28;20114;-80
2023/12/17 02:35:23;;;;;;;44.77;21.90;;;;;;;;;;10295375;28;20125;-79
2023/12/17 02:40:30;;;;;;;38.57;20.20;;;;;;;;;;10290317;28;20062;-79
2023/12/17 02:45:31;;;;;;;50.63;22.27;;;;;;;;;;10290549;28;20545;-81
2023/12/17 02:50:32;;;;;;;46.10;21.30;;;;;;;;;;10278126;28;20061;-79
2023/12/17 02:55:40;;;;;;;42.80;20.37;;;;;;;;;;10293678;28;20050;-81
2023/12/17 03:00:42;;;;;;;42.57;20.57;;;;;;;;;;10288472;28;20045;-79
2023/12/17 03:05:43;;;;;;;43.60;20.43;;;;;;;;;;10276971;28;20039;-80
2023/12/17 03:10:44;;;;;;;35.17;18.33;;;;;;;;;;10287163;28;20196;-81
2023/12/17 03:15:45;;;;;;;36.60;17.27;;;;;;;;;;10286974;28;20413;-81
2023/12/17 03:20:46;;;;;;;36.17;18.10;;;;;;;;;;10288531;28;20042;-81
2023/12/17 03:25:47;;;;;;;39.70;17.70;;;;;;;;;;10287818;28;20247;-78
2023/12/17 03:30:48;;;;;;;31.30;16.03;;;;;;;;;;10287371;28;20060;-80
2023/12/17 03:35:49;;;;;;;36.20;17.20;;;;;;;;;;10288501;28;20538;-79
2023/12/17 03:40:51;;;;;;;34.43;17.93;;;;;;;;;;10286283;28;20063;-78
2023/12/17 03:45:52;;;;;;;39.77;18.63;;;;;;;;;;10286608;28;20027;-80
2023/12/17 03:50:53;;;;;;;41.70;18.63;;;;;;;;;;10288939;28;20046;-78
2023/12/17 03:55:54;;;;;;;37.73;18.20;;;;;;;;;;10300771;28;20114;-78
2023/12/17 04:00:55;;;;;;;41.43;21.33;;;;;;;;;;10294790;28;20117;-80
2023/12/17 04:05:58;;;;;;;48.70;23.23;;;;;;;;;;10297319;28;20117;-79
2023/12/17 04:10:59;;;;;;;52.60;24.40;;;;;;;;;;10286027;28;20121;-78
2023/12/17 04:16:00;;;;;;;47.47;23.67;;;;;;;;;;10292559;28;20172;-80
2023/12/17 04:21:01;;;;;;;49.70;24.60;;;;;;;;;;10284823;28;20035;-78
2023/12/17 04:26:02;;;;;;;48.47;24.47;;;;;;;;;;10283530;28;20035;-79
2023/12/17 04:31:03;;;;;;;47.20;23.03;;;;;;;;;;10282211;28;20038;-79
2023/12/17 04:36:05;;;;;;;48.03;22.57;;;;;;;;;;10291618;28;20030;-78
2023/12/17 04:41:06;;;;;;;39.50;21.47;;;;;;;;;;10295173;28;20142;-79
2023/12/17 04:46:07;;;;;;;41.83;20.37;;;;;;;;;;10288157;28;20069;-79
2023/12/17 04:51:08;;;;;;;46.23;20.40;;;;;;;;;;10284622;28;20031;-80
2023/12/17 04:56:09;;;;;;;44.90;20.63;;;;;;;;;;10284919;28;20114;-79
2023/12/17 05:01:10;;;;;;;36.60;18.43;;;;;;;;;;10289695;28;20568;-79
2023/12/17 05:06:11;;;;;;;40.20;17.50;;;;;;;;;;10287842;28;20117;-79
2023/12/17 05:11:12;;;;;;;37.33;17.53;;;;;;;;;;10283754;28;20126;-79
2023/12/17 05:16:13;;;;;;;40.27;18.57;;;;;;;;;;10285340;28;20481;-80
2023/12/17 05:21:14;;;;;;;34.20;16.07;;;;;;;;;;10286761;28;20510;-78
2023/12/17 05:26:16;;;;;;;30.10;15.30;;;;;;;;;;10283824;28;20452;-80
2023/12/17 05:31:17;;;;;;;38.63;18.50;;;;;;;;;;10283921;28;20134;-79
2023/12/17 05:36:18;;;;;;;43.03;18.50;;;;;;;;;;10298066;28;20094;-79
2023/12/17 05:41:19;;;;;;;43.90;19.27;;;;;;;;;;10285813;28;20075;-80
2023/12/17 05:46:20;;;;;;;38.37;20.13;;;;;;;;;;10289781;28;20034;-80
2023/12/17 05:51:21;;;;;;;45.63;20.93;;;;;;;;;;10290201;28;20591;-80
2023/12/17 05:56:22;;;;;;;39.93;19.30;;;;;;;;;;10272694;28;20049;-80
2023/12/17 06:01:23;;;;;;;43.93;20.70;;;;;;;;;;10271215;28;20035;-79
2023/12/17 06:06:24;;;;;;;36.67;17.37;;;;;;;;;;10271709;28;20467;-78
2023/12/17 06:11:25;;;;;;;36.20;18.10;;;;;;;;;;10278079;28;20053;-78
2023/12/17 06:16:26;;;;;;;42.23;18.67;;;;;;;;;;10290707;28;20399;-79
2023/12/17 06:21:27;;;;;;;43.13;20.03;;;;;;;;;;10301836;28;20115;-79
2023/12/17 06:26:28;;;;;;;42.43;18.17;;;;;;;;;;10290212;28;20646;-80
2023/12/17 06:31:36;;;;;;;36.40;16.43;;;;;;;;;;10302834;28;20047;-80
2023/12/17 06:36:37;;;;;;;39.33;17.27;;;;;;;;;;10305158;28;20853;-79
2023/12/17 06:41:48;;;;;;;39.13;17.50;;;;;;;;;;10290105;28;20027;-80
2023/12/17 06:46:52;;;;;;;39.93;16.97;;;;;;;;;;10290788;28;20073;-80
2023/12/17 06:51:53;;;;;;;35.53;17.27;;;;;;;;;;10288635;28;20509;-80
2023/12/17 06:56:54;;;;;;;39.33;16.30;;;;;;;;;;10289638;28;20117;-79
2023/12/17 07:01:55;;;;;;;37.03;17.07;;;;;;;;;;10293887;28;20039;-81
2023/12/17 07:06:56;;;;;;;39.17;16.90;;;;;;;;;;10290646;28;20057;-81
2023/12/17 07:11:58;;;;;;;33.87;16.80;;;;;;;;;;10297714;28;20133;-80
2023/12/17 07:16:59;;;;;;;41.23;17.87;;;;;;;;;;10289547;28;20121;-79
2023/12/17 07:22:00;;;;;;;42.33;20.60;;;;;;;;;;10287407;28;20505;-80
2023/12/17 07:27:01;;;;;;;42.77;20.03;;;;;;;;;;10275891;28;20150;-80
2023/12/17 07:32:02;;;;;;;46.67;21.60;;;;;;;;;;10302176;28;20533;-81
2023/12/17 07:37:03;;;;;;;47.30;22.23;;;;;;;;;;10303671;28;20522;-80
2023/12/17 07:42:04;;;;;;;51.27;22.27;;;;;;;;;;10291355;28;20066;-83
2023/12/17 07:47:06;;;;;;;61.70;26.43;;;;;;;;;;10288000;28;20057;-80
2023/12/17 07:52:07;;;;;;;49.60;21.07;;;;;;;;;;10287406;28;20775;-80
2023/12/17 07:57:08;;;;;;;42.53;20.17;;;;;;;;;;10278505;28;20053;-79
2023/12/17 08:02:09;;;;;;;41.50;19.97;;;;;;;;;;10295932;28;20073;-79
2023/12/17 08:07:10;;;;;;;37.20;18.40;;;;;;;;;;10289844;28;20034;-80
2023/12/17 08:12:11;;;;;;;38.27;19.17;;;;;;;;;;10286268;28;20181;-82
2023/12/17 08:17:12;;;;;;;40.57;19.33;;;;;;;;;;10298123;28;20081;-80
2023/12/17 08:22:13;;;;;;;42.73;20.77;;;;;;;;;;10285311;28;20122;-81
2023/12/17 08:27:21;;;;;;;47.70;22.90;;;;;;;;;;10272739;28;20524;-78
2023/12/17 08:32:23;;;;;;;41.67;21.03;;;;;;;;;;10285002;28;20089;-81
2023/12/17 08:37:26;;;;;;;44.50;20.70;;;;;;;;;;10297590;28;20526;-79
2023/12/17 08:42:27;;;;;;;41.97;20.00;;;;;;;;;;10290119;28;20474;-79
2023/12/17 08:47:28;;;;;;;41.83;21.67;;;;;;;;;;10289194;28;20050;-81
2023/12/17 08:52:29;;;;;;;45.33;20.83;;;;;;;;;;10285561;28;20047;-79
2023/12/17 08:57:36;;;;;;;39.70;21.23;;;;;;;;;;10284834;28;20030;-80
2023/12/17 09:02:38;;;;;;;49.83;21.87;;;;;;;;;;10285625;28;20073;-82
2023/12/17 09:07:39;;;;;;;43.80;20.80;;;;;;;;;;10291482;28;20119;-80
2023/12/17 09:12:46;;;;;;;43.93;21.70;;;;;;;;;;10304569;28;20103;-80
2023/12/17 09:17:47;;;;;;;39.77;20.47;;;;;;;;;;10300957;28;20066;-80
2023/12/17 09:22:48;;;;;;;43.97;22.30;;;;;;;;;;10297704;28;20168;-81
2023/12/17 09:27:51;;;;;;;44.87;22.97;;;;;;;;;;10316543;28;20034;-80
2023/12/17 09:32:52;;;;;;;44.47;22.77;;;;;;;;;;10303567;28;20050;-81
2023/12/17 09:37:53;;;;;;;55.63;25.20;;;;;;;;;;10303143;28;20058;-80
2023/12/17 09:42:55;;;;;;;48.93;22.60;;;;;;;;;;10292208;28;20027;-80
2023/12/17 09:47:56;;;;;;;60.20;25.70;;;;;;;;;;10291705;28;20026;-79
2023/12/17 09:52:58;;;;;;;49.50;23.57;;;;;;;;;;10297042;28;20141;-79
2023/12/17 09:58:05;;;;;;;59.47;25.63;;;;;;;;;;10299025;28;20046;-79
2023/12/17 10:03:08;;;;;;;45.83;22.57;;;;;;;;;;10295783;28;20027;-78
2023/12/17 10:08:09;;;;;;;42.00;21.27;;;;;;;;;;10290738;28;20023;-79
2023/12/17 10:13:12;;;;;;;47.23;22.90;;;;;;;;;;10293104;28;20050;-78
2023/12/17 10:18:13;;;;;;;44.57;24.83;;;;;;;;;;10289726;28;20473;-78
2023/12/17 10:23:15;;;;;;;48.03;25.80;;;;;;;;;;10290198;28;20030;-79
2023/12/17 10:28:16;;;;;;;43.50;23.27;;;;;;;;;;10302194;28;20521;-79
2023/12/17 10:33:22;;;;;;;51.87;27.57;;;;;;;;;;10305214;28;20062;-78
2023/12/17 10:38:23;;;;;;;;;;;;;;;;;;10304228;28;20092;-79
2023/12/17 10:43:24;;;;;;;67.73;34.33;;;;;;;;;;10290852;28;20388;-79
2023/12/17 10:48:26;;;;;;;56.23;28.83;;;;;;;;;;10288224;28;20023;-79
2023/12/17 10:53:28;;;;;;;53.60;28.27;;;;;;;;;;10298543;28;20125;-80
2023/12/17 10:58:29;;;;;;;50.23;26.23;;;;;;;;;;10293376;28;20184;-81
2023/12/17 11:03:31;;;;;;;46.87;26.27;;;;;;;;;;10297128;28;20050;-81
2023/12/17 11:08:32;;;;;;;49.97;24.80;;;;;;;;;;10266447;28;20042;-80
2023/12/17 11:13:33;;;;;;;34.83;18.87;;;;;;;;;;10273695;28;20512;-80
2023/12/17 11:18:43;;;;;;;40.07;21.80;;;;;;;;;;10297072;28;20030;-80
2023/12/17 11:23:48;;;;;;;49.07;25.37;;;;;;;;;;10297126;28;20518;-80
2023/12/17 11:28:49;;;;;;;55.93;27.20;;;;;;;;;;10300816;28;20035;-80
2023/12/17 11:33:50;;;;;;;60.37;28.90;;;;;;;;;;10287580;28;20042;-79
2023/12/17 11:38:53;;;;;;;66.73;30.10;;;;;;;;;;10299325;28;20055;-80
2023/12/17 11:43:54;;;;;;;56.83;25.73;;;;;;;;;;10295643;28;20066;-80
2023/12/17 11:48:55;;;;;;;89.00;39.20;;;;;;;;;;10288155;28;20046;-80
2023/12/17 11:53:57;;;;;;;76.07;34.23;;;;;;;;;;10275962;28;20498;-80
2023/12/17 11:58:58;;;;;;;46.07;23.43;;;;;;;;;;10298201;28;20066;-80
2023/12/17 12:04:00;;;;;;;57.30;30.00;;;;;;;;;;10285643;28;20073;-80
2023/12/17 12:09:02;;;;;;;43.70;22.57;;;;;;;;;;10295451;28;20122;-80
2023/12/17 12:14:03;;;;;;;54.23;28.53;;;;;;;;;;10295269;28;20042;-78
2023/12/17 12:19:05;;;;;;;45.80;23.47;;;;;;;;;;10290572;28;20063;-82
2023/12/17 12:24:10;;;;;;;67.50;35.83;;;;;;;;;;10284892;28;20097;-80
2023/12/17 12:29:12;;;;;;;72.37;33.13;;;;;;;;;;10295693;28;20478;-80
2023/12/17 12:34:20;;;;;;;120.07;48.43;;;;;;;;;;10274087;28;20043;-79
2023/12/17 12:39:21;;;;;;;118.33;45.60;;;;;;;;;;10287915;28;20108;-79
2023/12/17 12:44:22;;;;;;;57.93;27.87;;;;;;;;;;10292292;28;20418;-79
2023/12/17 12:49:24;;;;;;;120.50;47.83;;;;;;;;;;10288011;28;20395;-80
2023/12/17 12:54:25;;;;;;;101.37;39.03;;;;;;;;;;10281098;28;20042;-78
2023/12/17 12:59:26;;;;;;;136.20;63.03;;;;;;;;;;10286906;28;20033;-78
2023/12/17 13:04:27;;;;;;;61.90;29.70;;;;;;;;;;10297251;28;20049;-82
2023/12/17 13:09:29;;;;;;;58.30;30.93;;;;;;;;;;10287876;28;20046;-80
2023/12/17 13:14:30;;;;;;;50.90;26.53;;;;;;;;;;10284092;28;20043;-81
2023/12/17 13:19:32;;;;;;;54.60;28.47;;;;;;;;;;10284185;28;20030;-79
2023/12/17 13:24:33;;;;;;;58.33;30.93;;;;;;;;;;10278082;28;20134;-79
2023/12/17 13:29:34;;;;;;;49.43;25.37;;;;;;;;;;10265446;28;20170;-79
2023/12/17 13:34:35;;;;;;;58.83;28.67;;;;;;;;;;10292850;28;20453;-79
2023/12/17 13:39:36;;;;;;;53.13;25.33;;;;;;;;;;10282551;28;20058;-79
2023/12/17 13:44:38;;;;;;;61.90;31.63;;;;;;;;;;10283735;28;20073;-82
2023/12/17 13:49:39;;;;;;;63.67;31.47;;;;;;;;;;10283622;28;20130;-79
2023/12/17 13:54:40;;;;;;;55.73;28.70;;;;;;;;;;10295389;28;20039;-80
2023/12/17 13:59:42;;;;;;;62.50;31.27;;;;;;;;;;10287861;28;20030;-80
2023/12/17 14:04:43;;;;;;;65.70;31.27;;;;;;;;;;10279236;28;20042;-79
2023/12/17 14:09:44;;;;;;;55.87;30.03;;;;;;;;;;10277730;28;20451;-79
2023/12/17 14:14:46;;;;;;;50.07;27.43;;;;;;;;;;10289467;28;20034;-78
2023/12/17 14:19:48;;;;;;;49.50;24.57;;;;;;;;;;10293824;28;20041;-79
2023/12/17 14:24:50;;;;;;;51.17;24.73;;;;;;;;;;10288626;28;20479;-79
2023/12/17 14:29:51;;;;;;;47.93;24.17;;;;;;;;;;10284442;28;20097;-80
2023/12/17 14:34:53;;;;;;;43.80;22.17;;;;;;;;;;10290523;28;20043;-80
2023/12/17 14:39:54;;;;;;;46.60;22.37;;;;;;;;;;10293756;28;20054;-79
2023/12/17 14:44:55;;;;;;;43.83;22.67;;;;;;;;;;10289873;28;20069;-79
2023/12/17 14:49:57;;;;;;;56.03;25.00;;;;;;;;;;10288820;28;20110;-79
2023/12/17 14:54:58;;;;;;;49.93;23.97;;;;;;;;;;10288134;28;20069;-80
2023/12/17 15:00:06;;;;;;;54.40;24.63;;;;;;;;;;10278096;28;20118;-80
2023/12/17 15:05:07;;;;;;;59.37;26.80;;;;;;;;;;10297595;28;20163;-79
2023/12/17 15:10:15;;;;;;;69.60;30.40;;;;;;;;;;10294377;28;20043;-79
2023/12/17 15:15:16;;;;;;;72.73;33.43;;;;;;;;;;10296257;28;20125;-79
2023/12/17 15:20:17;;;;;;;53.83;26.33;;;;;;;;;;10289684;28;20047;-79
2023/12/17 15:25:18;;;;;;;58.47;27.30;;;;;;;;;;10285751;28;20371;-80
2023/12/17 15:30:19;;;;;;;69.57;33.70;;;;;;;;;;10283980;28;20030;-78
2023/12/17 15:35:21;;;;;;;60.40;29.23;;;;;;;;;;10286710;28;20109;-80
2023/12/17 15:40:22;;;;;;;63.13;31.90;;;;;;;;;;10274329;28;20142;-78
2023/12/17 15:45:23;;;;;;;65.03;32.83;;;;;;;;;;10285933;28;20039;-79
2023/12/17 15:50:24;;;;;;;72.50;32.90;;;;;;;;;;10285880;28;20118;-79
2023/12/17 15:55:25;;;;;;;61.80;30.90;;;;;;;;;;10285735;28;20469;-79
2023/12/17 16:00:27;;;;;;;60.53;29.53;;;;;;;;;;10275811;28;20046;-81
2023/12/17 16:05:28;;;;;;;56.97;28.90;;;;;;;;;;10275290;28;20041;-80
2023/12/17 16:10:29;;;;;;;62.10;28.80;;;;;;;;;;10284335;28;20043;-80
2023/12/17 16:15:30;;;;;;;49.33;24.07;;;;;;;;;;10284000;28;20508;-78
2023/12/17 16:20:31;;;;;;;54.97;26.10;;;;;;;;;;10284119;28;20125;-82
2023/12/17 16:25:32;;;;;;;46.97;24.27;;;;;;;;;;10280595;28;20050;-80
2023/12/17 16:30:33;;;;;;;53.07;23.30;;;;;;;;;;10284877;28;20145;-78
2023/12/17 16:35:34;;;;;;;52.07;24.47;;;;;;;;;;10294586;28;20066;-80
2023/12/17 16:40:35;;;;;;;50.77;23.50;;;;;;;;;;10289107;28;20050;-79
2023/12/17 16:45:38;;;;;;;53.47;23.33;;;;;;;;;;10283671;28;20023;-81
2023/12/17 16:50:39;;;;;;;44.63;22.07;;;;;;;;;;10275572;28;20062;-79
2023/12/17 16:55:40;;;;;;;44.30;21.10;;;;;;;;;;10284278;28;20445;-79
2023/12/17 17:00:41;;;;;;;47.17;22.10;;;;;;;;;;10276425;28;20376;-79
2023/12/17 17:05:42;;;;;;;53.17;23.00;;;;;;;;;;10275458;28;20088;-79
2023/12/17 17:10:43;;;;;;;46.73;22.10;;;;;;;;;;10286015;28;20454;-80
2023/12/17 17:15:44;;;;;;;47.37;22.77;;;;;;;;;;10285633;28;20500;-78
2023/12/17 17:20:46;;;;;;;43.30;21.63;;;;;;;;;;10290573;28;20030;-79
2023/12/17 17:25:47;;;;;;;54.77;24.67;;;;;;;;;;10299232;28;20046;-82
2023/12/17 17:30:48;;;;;;;78.73;36.43;;;;;;;;;;10287835;28;20110;-81
2023/12/17 17:35:49;;;;;;;58.93;28.90;;;;;;;;;;10274592;28;20073;-79
2023/12/17 17:40:50;;;;;;;70.47;32.97;;;;;;;;;;10300287;28;20051;-79
2023/12/17 17:45:51;;;;;;;68.17;32.03;;;;;;;;;;10291760;28;20521;-79
2023/12/17 17:50:52;;;;;;;68.17;33.40;;;;;;;;;;10295668;28;20038;-79
2023/12/17 17:55:53;;;;;;;76.60;35.67;;;;;;;;;;10291869;28;20050;-79
2023/12/17 18:00:55;;;;;;;69.00;35.63;;;;;;;;;;10302409;28;20130;-79
2023/12/17 18:05:56;;;;;;;73.00;35.00;;;;;;;;;;10294165;28;20442;-80
2023/12/17 18:10:57;;;;;;;70.60;35.90;;;;;;;;;;10299177;28;20040;-80
2023/12/17 18:15:59;;;;;;;75.63;37.30;;;;;;;;;;10295700;28;20145;-81
2023/12/17 18:21:00;;;;;;;76.10;40.63;;;;;;;;;;10295720;28;20026;-79
2023/12/17 18:26:01;;;;;;;72.20;37.00;;;;;;;;;;10294074;28;20041;-79
2023/12/17 18:31:10;;;;;;;67.13;35.17;;;;;;;;;;10292723;28;20030;-79
2023/12/17 18:36:11;;;;;;;69.00;34.63;;;;;;;;;;10313192;28;20046;-79
2023/12/17 18:41:13;;;;;;;71.90;34.30;;;;;;;;;;10281319;28;20830;-81
2023/12/17 18:46:15;;;;;;;60.57;31.97;;;;;;;;;;10288414;28;20409;-80
2023/12/17 18:51:16;;;;;;;60.00;29.40;;;;;;;;;;10294403;28;20034;-80
2023/12/17 18:56:17;;;;;;;60.40;28.30;;;;;;;;;;10277614;28;20129;-78
2023/12/17 19:01:19;;;;;;;59.57;27.30;;;;;;;;;;10291498;28;20030;-79
2023/12/17 19:06:20;;;;;;;55.20;28.33;;;;;;;;;;10289407;28;20066;-82
2023/12/17 19:11:21;;;;;;;58.13;28.03;;;;;;;;;;10291050;28;20038;-81
2023/12/17 19:16:23;;;;;;;65.50;32.30;;;;;;;;;;10310228;28;20377;-79
2023/12/17 19:21:24;;;;;;;63.33;32.27;;;;;;;;;;10284808;28;20483;-79
2023/12/17 19:26:25;;;;;;;64.43;33.87;;;;;;;;;;10302950;28;20061;-79
2023/12/17 19:31:26;;;;;;;65.67;32.57;;;;;;;;;;10287854;28;20038;-79
2023/12/17 19:36:28;;;;;;;59.57;31.93;;;;;;;;;;10276838;28;20049;-79
2023/12/17 19:41:29;;;;;;;57.00;28.67;;;;;;;;;;10286919;28;20078;-81
2023/12/17 19:46:36;;;;;;;55.43;28.87;;;;;;;;;;10286944;28;20035;-79
2023/12/17 19:51:37;;;;;;;57.57;27.60;;;;;;;;;;10285348;28;20475;-79
2023/12/17 19:56:41;;;;;;;52.47;28.07;;;;;;;;;;10287222;28;20042;-79
2023/12/17 20:01:42;;;;;;;51.03;27.73;;;;;;;;;;10286145;28;20493;-79
2023/12/17 20:06:43;;;;;;;53.57;29.20;;;;;;;;;;10284856;28;20457;-80
2023/12/17 20:11:44;;;;;;;56.70;28.77;;;;;;;;;;10286585;28;20483;-79
2023/12/17 20:16:45;;;;;;;65.33;29.33;;;;;;;;;;10278675;28;20043;-80
2023/12/17 20:21:46;;;;;;;62.10;30.37;;;;;;;;;;10285384;28;20054;-79
2023/12/17 20:26:53;;;;;;;61.27;30.10;;;;;;;;;;10285710;28;20087;-81
2023/12/17 20:31:54;;;;;;;58.83;29.60;;;;;;;;;;10285971;28;20043;-80
2023/12/17 20:37:04;;;;;;;57.67;28.33;;;;;;;;;;10284395;28;20134;-80
2023/12/17 20:42:12;;;;;;;58.70;30.97;;;;;;;;;;10295602;28;20133;-79
2023/12/17 20:47:13;;;;;;;53.03;27.23;;;;;;;;;;10293124;28;20117;-79
2023/12/17 20:52:15;;;;;;;47.27;24.27;;;;;;;;;;10292684;28;20436;-79
2023/12/17 20:57:16;;;;;;;55.00;27.43;;;;;;;;;;10283352;28;20043;-79
2023/12/17 21:02:23;;;;;;;54.87;28.90;;;;;;;;;;10284559;28;20062;-79
2023/12/17 21:07:24;;;;;;;56.57;30.77;;;;;;;;;;10292308;28;20114;-79
2023/12/17 21:12:27;;;;;;;58.30;30.70;;;;;;;;;;10306422;28;20133;-80
2023/12/17 21:17:28;;;;;;;65.27;32.87;;;;;;;;;;10310805;28;20088;-81
2023/12/17 21:22:29;;;;;;;65.90;31.87;;;;;;;;;;10294083;28;20122;-80
2023/12/17 21:27:31;;;;;;;61.93;31.27;;;;;;;;;;10320749;28;20081;-79
2023/12/17 21:32:32;;;;;;;67.80;34.13;;;;;;;;;;10295535;28;20027;-79
2023/12/17 21:37:33;;;;;;;62.67;31.67;;;;;;;;;;10300627;28;20034;-79
2023/12/17 21:42:35;;;;;;;77.03;34.83;;;;;;;;;;10285700;28;20051;-80
2023/12/17 21:47:36;;;;;;;72.20;33.30;;;;;;;;;;10313464;28;20080;-79
2023/12/17 21:52:37;;;;;;;67.37;33.73;;;;;;;;;;10302370;28;20129;-82
2023/12/17 21:57:38;;;;;;;60.03;30.93;;;;;;;;;;10298972;28;20133;-79
2023/12/17 22:02:39;;;;;;;64.90;31.43;;;;;;;;;;10303348;28;20038;-81
2023/12/17 22:07:40;;;;;;;74.27;35.83;;;;;;;;;;10297236;28;20118;-79
2023/12/17 22:12:42;;;;;;;64.37;32.53;;;;;;;;;;10309085;28;20149;-79
2023/12/17 22:17:43;;;;;;;58.30;31.20;;;;;;;;;;10294205;28;20042;-79
2023/12/17 22:22:44;;;;;;;61.63;30.83;;;;;;;;;;10298061;28;20121;-80
2023/12/17 22:27:51;;;;;;;62.23;30.83;;;;;;;;;;10307292;28;20181;-79
2023/12/17 22:32:52;;;;;;;74.00;33.53;;;;;;;;;;10284398;28;20755;-79
2023/12/17 22:37:54;;;;;;;58.20;29.57;;;;;;;;;;10289667;28;20026;-80
2023/12/17 22:42:55;;;;;;;50.80;27.90;;;;;;;;;;10301991;28;20058;-79
2023/12/17 22:47:56;;;;;;;61.17;31.40;;;;;;;;;;10300172;28;20061;-81
2023/12/17 22:52:57;;;;;;;63.63;31.50;;;;;;;;;;10298394;28;20122;-79
2023/12/17 22:57:58;;;;;;;65.17;35.17;;;;;;;;;;10303333;28;20137;-79
2023/12/17 23:02:59;;;;;;;65.80;33.60;;;;;;;;;;10298721;28;20106;-79
2023/12/17 23:08:00;;;;;;;60.53;29.60;;;;;;;;;;10303134;28;20117;-80
2023/12/17 23:13:01;;;;;;;52.43;27.90;;;;;;;;;;10300232;28;20137;-79
2023/12/17 23:18:02;;;;;;;56.20;28.10;;;;;;;;;;10288482;28;20759;-79
2023/12/17 23:23:04;;;;;;;48.33;23.33;;;;;;;;;;10300352;28;20133;-79
2023/12/17 23:28:05;;;;;;;51.07;25.83;;;;;;;;;;10310917;28;20053;-79
2023/12/17 23:33:07;;;;;;;45.90;22.10;;;;;;;;;;10286684;28;20039;-79
2023/12/17 23:38:08;;;;;;;48.63;24.50;;;;;;;;;;10295807;28;20081;-80
2023/12/17 23:43:09;;;;;;;47.37;22.73;;;;;;;;;;10292504;28;20063;-81
2023/12/17 23:48:11;;;;;;;40.63;21.97;;;;;;;;;;10289572;28;20110;-79
2023/12/17 23:53:12;;;;;;;44.70;23.63;;;;;;;;;;10293831;28;20034;-79
2023/12/17 23:58:13;;;;;;;56.13;28.67;;;;;;;;;;10303689;28;20050;-79
